DAL6942 KPHX-KLAS
Flight info
| Callsign | DAL6942 |
|---|---|
| Flight time | N/A |
| Altitude | 28000 |
| Route | ZEPER2 RRSTA ELLDA RKSTR4 |
| Aircraft | A321/M-SDE3FGHIRWY/LB1 |
Departure
| Time | 2026-05-05 00:43 |
|---|---|
| Airport | Phoenix Sky Harbor International Airport (KPHX) |
Arrival
| Time | N/A |
|---|---|
| Airport | Harry Reid International Airport (KLAS) |
| Time | Latitude | Longitude | Altitude | Speed | Heading |
|---|---|---|---|---|---|
| 2026-05-05 00:17 | 33.43718 | -111.99983 | 1131 ft | 0 kts | 90° |
| 2026-05-05 00:31 | 33.43718 | -111.99995 | 1131 ft | 3 kts | 89° |
| 2026-05-05 00:31 | 33.43714 | -112.00022 | 1135 ft | 4 kts | 42° |
| 2026-05-05 00:31 | 33.43691 | -112.00032 | 1135 ft | 4 kts | 0° |
| 2026-05-05 00:32 | 33.43681 | -112.00032 | 1132 ft | 1 kts | 0° |
| 2026-05-05 00:37 | 33.43689 | -112.00032 | 1135 ft | 4 kts | 360° |
| 2026-05-05 00:38 | 33.43753 | -112.00032 | 1136 ft | 14 kts | 360° |
| 2026-05-05 00:38 | 33.43862 | -112.00031 | 1136 ft | 13 kts | 8° |
| 2026-05-05 00:38 | 33.43904 | -111.99950 | 1135 ft | 12 kts | 86° |
| 2026-05-05 00:38 | 33.43904 | -111.99845 | 1131 ft | 13 kts | 90° |
| 2026-05-05 00:39 | 33.43905 | -111.99734 | 1131 ft | 14 kts | 90° |
| 2026-05-05 00:39 | 33.43905 | -111.99617 | 1132 ft | 14 kts | 89° |
| 2026-05-05 00:39 | 33.43904 | -111.99496 | 1132 ft | 15 kts | 91° |
| 2026-05-05 00:39 | 33.43903 | -111.99368 | 1132 ft | 16 kts | 90° |
| 2026-05-05 00:40 | 33.43839 | -111.99296 | 1133 ft | 15 kts | 175° |
| 2026-05-05 00:40 | 33.43734 | -111.99297 | 1134 ft | 16 kts | 181° |
| 2026-05-05 00:40 | 33.43647 | -111.99236 | 1134 ft | 15 kts | 159° |
| 2026-05-05 00:40 | 33.43543 | -111.99230 | 1132 ft | 15 kts | 180° |
| 2026-05-05 00:41 | 33.43434 | -111.99229 | 1133 ft | 16 kts | 180° |
| 2026-05-05 00:41 | 33.43322 | -111.99229 | 1133 ft | 16 kts | 180° |
| 2026-05-05 00:41 | 33.43216 | -111.99257 | 1132 ft | 15 kts | 221° |
| 2026-05-05 00:41 | 33.43150 | -111.99334 | 1137 ft | 12 kts | 223° |
| 2026-05-05 00:42 | 33.43103 | -111.99466 | 1135 ft | 28 kts | 270° |
| 2026-05-05 00:42 | 33.43103 | -111.99959 | 1134 ft | 93 kts | 270° |
| 2026-05-05 00:42 | 33.43103 | -112.00952 | 1131 ft | 147 kts | 270° |
| 2026-05-05 00:42 | 33.43113 | -112.02309 | 1440 ft | 164 kts | 271° |
| 2026-05-05 00:43 | 33.43119 | -112.03666 | 2078 ft | 163 kts | 271° |
| 2026-05-05 00:43 | 33.43154 | -112.05039 | 2657 ft | 167 kts | 271° |
| 2026-05-05 00:43 | 33.43214 | -112.06456 | 3052 ft | 179 kts | 273° |
| 2026-05-05 00:43 | 33.43277 | -112.08027 | 3279 ft | 199 kts | 271° |
| 2026-05-05 00:44 | 33.43312 | -112.09732 | 3478 ft | 217 kts | 270° |
| 2026-05-05 00:44 | 33.43345 | -112.11627 | 3700 ft | 237 kts | 269° |
| 2026-05-05 00:44 | 33.43381 | -112.13617 | 4360 ft | 241 kts | 269° |
| 2026-05-05 00:44 | 33.43436 | -112.15620 | 5144 ft | 240 kts | 269° |
| 2026-05-05 00:45 | 33.43571 | -112.17618 | 5855 ft | 244 kts | 281° |
| 2026-05-05 00:45 | 33.44464 | -112.19373 | 6518 ft | 260 kts | 316° |
| 2026-05-05 00:45 | 33.46144 | -112.20257 | 7136 ft | 273 kts | 346° |
| 2026-05-05 00:45 | 33.48035 | -112.20389 | 7830 ft | 279 kts | 359° |
| 2026-05-05 00:46 | 33.49978 | -112.20201 | 8529 ft | 282 kts | 2° |
| 2026-05-05 00:46 | 33.51934 | -112.19962 | 9152 ft | 286 kts | 1° |
| 2026-05-05 00:46 | 33.53927 | -112.19770 | 9753 ft | 292 kts | 358° |
| 2026-05-05 00:46 | 33.56023 | -112.19759 | 10045 ft | 307 kts | 353° |
| 2026-05-05 00:47 | 33.58210 | -112.19907 | 10261 ft | 326 kts | 351° |
| 2026-05-05 00:47 | 33.60549 | -112.20147 | 10387 ft | 348 kts | 351° |
| 2026-05-05 00:47 | 33.63000 | -112.20544 | 10727 ft | 358 kts | 342° |
| 2026-05-05 00:47 | 33.65398 | -112.21366 | 11280 ft | 361 kts | 339° |
| 2026-05-05 00:48 | 33.67799 | -112.22172 | 11894 ft | 364 kts | 340° |
| 2026-05-05 00:48 | 33.70249 | -112.22964 | 12516 ft | 367 kts | 340° |
| 2026-05-05 00:48 | 33.72736 | -112.23754 | 13112 ft | 371 kts | 340° |
| 2026-05-05 00:48 | 33.75273 | -112.24558 | 13683 ft | 375 kts | 340° |
| 2026-05-05 00:49 | 33.77765 | -112.25352 | 14246 ft | 377 kts | 340° |
| 2026-05-05 00:49 | 33.80306 | -112.26164 | 14830 ft | 379 kts | 340° |
| 2026-05-05 00:49 | 33.82866 | -112.26986 | 15433 ft | 381 kts | 340° |
| 2026-05-05 00:49 | 33.85429 | -112.27814 | 16026 ft | 383 kts | 339° |
| 2026-05-05 00:50 | 33.88004 | -112.28648 | 16622 ft | 385 kts | 339° |
| 2026-05-05 00:50 | 33.90601 | -112.29489 | 17211 ft | 386 kts | 339° |
| 2026-05-05 00:50 | 33.93203 | -112.30332 | 17780 ft | 389 kts | 339° |
| 2026-05-05 00:50 | 33.95821 | -112.31182 | 18333 ft | 391 kts | 339° |
| 2026-05-05 00:51 | 33.98452 | -112.32038 | 18784 ft | 394 kts | 338° |
| 2026-05-05 00:51 | 34.01045 | -112.32981 | 19215 ft | 393 kts | 332° |
| 2026-05-05 00:51 | 34.03486 | -112.34412 | 19584 ft | 388 kts | 321° |